sensor_id;sensor_type;location;lat;lon;timestamp;temperature;humidity
65038;DHT22;51605;47.040;15.294;2022-12-29T00:01:37;20.90;59.80
65038;DHT22;51605;47.040;15.294;2022-12-29T00:04:03;20.90;59.80
65038;DHT22;51605;47.040;15.294;2022-12-29T00:06:29;20.90;59.80
65038;DHT22;51605;47.040;15.294;2022-12-29T00:08:54;20.90;59.80
65038;DHT22;51605;47.040;15.294;2022-12-29T00:11:22;20.90;59.70
65038;DHT22;51605;47.040;15.294;2022-12-29T00:13:48;20.90;59.80
65038;DHT22;51605;47.040;15.294;2022-12-29T00:16:32;20.90;59.70
65038;DHT22;51605;47.040;15.294;2022-12-29T00:18:58;20.90;59.80
65038;DHT22;51605;47.040;15.294;2022-12-29T00:21:24;20.90;59.70
65038;DHT22;51605;47.040;15.294;2022-12-29T00:24:16;20.80;59.70
65038;DHT22;51605;47.040;15.294;2022-12-29T00:29:47;20.90;59.80
65038;DHT22;51605;47.040;15.294;2022-12-29T00:32:31;20.90;59.80
65038;DHT22;51605;47.040;15.294;2022-12-29T00:35:23;20.80;59.70
65038;DHT22;51605;47.040;15.294;2022-12-29T00:37:48;20.90;59.80
65038;DHT22;51605;47.040;15.294;2022-12-29T00:40:32;20.80;59.70
65038;DHT22;51605;47.040;15.294;2022-12-29T00:43:16;20.90;59.80
65038;DHT22;51605;47.040;15.294;2022-12-29T00:46:01;20.80;59.70
65038;DHT22;51605;47.040;15.294;2022-12-29T00:48:26;20.90;59.70
65038;DHT22;51605;47.040;15.294;2022-12-29T00:51:24;20.90;59.70
65038;DHT22;51605;47.040;15.294;2022-12-29T00:53:49;20.80;59.70
65038;DHT22;51605;47.040;15.294;2022-12-29T00:56:15;20.80;59.60
65038;DHT22;51605;47.040;15.294;2022-12-29T00:58:40;20.80;59.70
65038;DHT22;51605;47.040;15.294;2022-12-29T01:01:07;20.90;59.70
65038;DHT22;51605;47.040;15.294;2022-12-29T01:03:36;20.90;59.70
65038;DHT22;51605;47.040;15.294;2022-12-29T01:06:08;20.80;59.60
65038;DHT22;51605;47.040;15.294;2022-12-29T01:08:34;20.90;59.60
65038;DHT22;51605;47.040;15.294;2022-12-29T01:11:04;20.90;59.60
65038;DHT22;51605;47.040;15.294;2022-12-29T01:13:30;20.90;59.60
65038;DHT22;51605;47.040;15.294;2022-12-29T01:15:55;20.90;59.60
65038;DHT22;51605;47.040;15.294;2022-12-29T01:18:21;20.90;59.60
65038;DHT22;51605;47.040;15.294;2022-12-29T01:20:47;20.90;59.60
65038;DHT22;51605;47.040;15.294;2022-12-29T01:23:13;20.90;59.60
65038;DHT22;51605;47.040;15.294;2022-12-29T01:25:38;20.90;59.60
65038;DHT22;51605;47.040;15.294;2022-12-29T01:28:04;20.90;59.60
65038;DHT22;51605;47.040;15.294;2022-12-29T01:30:29;20.90;59.40
65038;DHT22;51605;47.040;15.294;2022-12-29T01:32:55;20.90;59.50
65038;DHT22;51605;47.040;15.294;2022-12-29T01:35:20;20.90;59.50
65038;DHT22;51605;47.040;15.294;2022-12-29T01:37:46;20.90;59.50
65038;DHT22;51605;47.040;15.294;2022-12-29T01:40:11;20.90;59.60
65038;DHT22;51605;47.040;15.294;2022-12-29T01:42:37;20.90;59.60
65038;DHT22;51605;47.040;15.294;2022-12-29T01:45:04;20.90;59.50
65038;DHT22;51605;47.040;15.294;2022-12-29T01:50:03;20.90;59.40
65038;DHT22;51605;47.040;15.294;2022-12-29T01:52:29;20.90;59.40
65038;DHT22;51605;47.040;15.294;2022-12-29T01:54:56;20.80;59.40
65038;DHT22;51605;47.040;15.294;2022-12-29T01:57:24;20.90;59.40
65038;DHT22;51605;47.040;15.294;2022-12-29T01:59:52;20.90;59.40
65038;DHT22;51605;47.040;15.294;2022-12-29T02:02:18;20.90;59.40
65038;DHT22;51605;47.040;15.294;2022-12-29T02:04:44;20.90;59.50
65038;DHT22;51605;47.040;15.294;2022-12-29T02:07:17;20.90;59.40
65038;DHT22;51605;47.040;15.294;2022-12-29T02:09:43;20.90;59.30
65038;DHT22;51605;47.040;15.294;2022-12-29T02:12:11;20.90;59.30
65038;DHT22;51605;47.040;15.294;2022-12-29T02:14:36;20.90;59.40
65038;DHT22;51605;47.040;15.294;2022-12-29T02:19:56;20.90;59.40
65038;DHT22;51605;47.040;15.294;2022-12-29T02:35:54;20.90;59.40
65038;DHT22;51605;47.040;15.294;2022-12-29T02:38:25;20.90;59.40
65038;DHT22;51605;47.040;15.294;2022-12-29T02:40:54;20.90;59.40
65038;DHT22;51605;47.040;15.294;2022-12-29T02:43:26;20.90;59.40
65038;DHT22;51605;47.040;15.294;2022-12-29T02:50:49;20.90;59.40
65038;DHT22;51605;47.040;15.294;2022-12-29T02:53:16;20.90;59.30
65038;DHT22;51605;47.040;15.294;2022-12-29T02:55:49;20.90;59.30
65038;DHT22;51605;47.040;15.294;2022-12-29T02:58:18;20.90;59.30
65038;DHT22;51605;47.040;15.294;2022-12-29T03:06:21;20.90;59.30
65038;DHT22;51605;47.040;15.294;2022-12-29T03:11:13;20.90;59.30
65038;DHT22;51605;47.040;15.294;2022-12-29T03:14:15;20.90;59.30
65038;DHT22;51605;47.040;15.294;2022-12-29T03:17:08;20.90;59.30
65038;DHT22;51605;47.040;15.294;2022-12-29T03:19:36;20.90;59.30
65038;DHT22;51605;47.040;15.294;2022-12-29T03:22:05;20.90;59.30
65038;DHT22;51605;47.040;15.294;2022-12-29T03:25:01;20.90;59.30
65038;DHT22;51605;47.040;15.294;2022-12-29T03:27:32;20.90;59.30
65038;DHT22;51605;47.040;15.294;2022-12-29T03:30:01;20.90;59.30
65038;DHT22;51605;47.040;15.294;2022-12-29T03:32:29;20.90;59.30
65038;DHT22;51605;47.040;15.294;2022-12-29T03:34:55;20.90;59.30
65038;DHT22;51605;47.040;15.294;2022-12-29T03:37:22;20.90;59.30
65038;DHT22;51605;47.040;15.294;2022-12-29T03:39:49;20.90;59.30
65038;DHT22;51605;47.040;15.294;2022-12-29T03:42:16;20.90;59.30
65038;DHT22;51605;47.040;15.294;2022-12-29T03:44:43;20.90;59.30
65038;DHT22;51605;47.040;15.294;2022-12-29T03:47:12;20.90;59.30
65038;DHT22;51605;47.040;15.294;2022-12-29T03:49:37;20.90;59.30
65038;DHT22;51605;47.040;15.294;2022-12-29T03:52:03;20.90;59.30
65038;DHT22;51605;47.040;15.294;2022-12-29T03:54:30;20.90;59.30
65038;DHT22;51605;47.040;15.294;2022-12-29T03:56:55;20.90;59.30
65038;DHT22;51605;47.040;15.294;2022-12-29T03:59:21;20.90;59.30
65038;DHT22;51605;47.040;15.294;2022-12-29T04:01:46;20.90;59.30
65038;DHT22;51605;47.040;15.294;2022-12-29T04:04:12;20.90;59.30
65038;DHT22;51605;47.040;15.294;2022-12-29T04:06:37;20.90;59.30
65038;DHT22;51605;47.040;15.294;2022-12-29T04:09:03;20.90;59.30
65038;DHT22;51605;47.040;15.294;2022-12-29T04:11:29;20.90;59.20
65038;DHT22;51605;47.040;15.294;2022-12-29T04:13:54;20.90;59.20
65038;DHT22;51605;47.040;15.294;2022-12-29T04:16:20;20.90;59.20
65038;DHT22;51605;47.040;15.294;2022-12-29T04:18:45;20.90;59.20
65038;DHT22;51605;47.040;15.294;2022-12-29T04:21:11;20.90;59.20
65038;DHT22;51605;47.040;15.294;2022-12-29T04:23:37;20.90;59.20
65038;DHT22;51605;47.040;15.294;2022-12-29T04:26:03;20.90;59.20
65038;DHT22;51605;47.040;15.294;2022-12-29T04:28:29;20.90;59.20
65038;DHT22;51605;47.040;15.294;2022-12-29T04:30:54;20.90;59.20
65038;DHT22;51605;47.040;15.294;2022-12-29T04:33:20;20.90;59.30
65038;DHT22;51605;47.040;15.294;2022-12-29T04:35:46;20.90;59.20
65038;DHT22;51605;47.040;15.294;2022-12-29T04:38:12;20.90;59.20
65038;DHT22;51605;47.040;15.294;2022-12-29T04:40:38;20.90;59.30
65038;DHT22;51605;47.040;15.294;2022-12-29T04:43:04;20.90;59.30
65038;DHT22;51605;47.040;15.294;2022-12-29T04:45:30;20.90;59.30
65038;DHT22;51605;47.040;15.294;2022-12-29T04:47:55;20.90;59.30
65038;DHT22;51605;47.040;15.294;2022-12-29T04:50:21;20.90;59.30
65038;DHT22;51605;47.040;15.294;2022-12-29T04:52:46;20.90;59.20
65038;DHT22;51605;47.040;15.294;2022-12-29T04:55:12;20.90;59.20
65038;DHT22;51605;47.040;15.294;2022-12-29T04:57:37;20.90;59.20
65038;DHT22;51605;47.040;15.294;2022-12-29T05:00:03;20.90;59.10
65038;DHT22;51605;47.040;15.294;2022-12-29T05:02:29;20.90;59.20
65038;DHT22;51605;47.040;15.294;2022-12-29T05:04:55;20.90;59.20
65038;DHT22;51605;47.040;15.294;2022-12-29T05:07:20;20.90;59.20
65038;DHT22;51605;47.040;15.294;2022-12-29T05:09:46;20.90;59.20
65038;DHT22;51605;47.040;15.294;2022-12-29T05:12:11;20.90;59.20
65038;DHT22;51605;47.040;15.294;2022-12-29T05:14:37;20.90;59.10
65038;DHT22;51605;47.040;15.294;2022-12-29T05:17:02;20.90;59.10
65038;DHT22;51605;47.040;15.294;2022-12-29T05:19:28;20.90;59.10
65038;DHT22;51605;47.040;15.294;2022-12-29T05:21:53;20.90;59.20
65038;DHT22;51605;47.040;15.294;2022-12-29T05:24:19;20.90;59.20
65038;DHT22;51605;47.040;15.294;2022-12-29T05:26:45;20.90;59.20
65038;DHT22;51605;47.040;15.294;2022-12-29T05:29:10;20.90;59.20
65038;DHT22;51605;47.040;15.294;2022-12-29T05:31:36;20.90;59.20
65038;DHT22;51605;47.040;15.294;2022-12-29T05:34:02;20.90;59.10
65038;DHT22;51605;47.040;15.294;2022-12-29T05:36:28;20.90;59.20
65038;DHT22;51605;47.040;15.294;2022-12-29T05:38:53;20.90;59.20
65038;DHT22;51605;47.040;15.294;2022-12-29T05:41:19;20.90;59.10
65038;DHT22;51605;47.040;15.294;2022-12-29T05:43:44;20.90;59.10
65038;DHT22;51605;47.040;15.294;2022-12-29T05:46:10;20.90;59.10
65038;DHT22;51605;47.040;15.294;2022-12-29T05:48:35;20.90;59.10
65038;DHT22;51605;47.040;15.294;2022-12-29T05:51:01;20.90;59.10
65038;DHT22;51605;47.040;15.294;2022-12-29T05:53:26;20.90;59.10
65038;DHT22;51605;47.040;15.294;2022-12-29T05:55:52;20.90;59.10
65038;DHT22;51605;47.040;15.294;2022-12-29T05:58:17;20.90;59.10
65038;DHT22;51605;47.040;15.294;2022-12-29T06:00:43;20.90;59.10
65038;DHT22;51605;47.040;15.294;2022-12-29T06:03:08;20.90;59.20
65038;DHT22;51605;47.040;15.294;2022-12-29T06:05:34;20.90;59.20
65038;DHT22;51605;47.040;15.294;2022-12-29T06:07:59;20.90;59.20
65038;DHT22;51605;47.040;15.294;2022-12-29T06:10:25;20.90;60.10
65038;DHT22;51605;47.040;15.294;2022-12-29T06:12:51;20.90;59.20
65038;DHT22;51605;47.040;15.294;2022-12-29T06:15:16;20.90;59.20
65038;DHT22;51605;47.040;15.294;2022-12-29T06:17:42;20.90;59.20
65038;DHT22;51605;47.040;15.294;2022-12-29T06:20:08;20.90;59.20
65038;DHT22;51605;47.040;15.294;2022-12-29T06:22:34;20.90;59.20
65038;DHT22;51605;47.040;15.294;2022-12-29T06:24:59;20.90;59.20
65038;DHT22;51605;47.040;15.294;2022-12-29T06:27:25;20.90;59.30
65038;DHT22;51605;47.040;15.294;2022-12-29T06:29:51;20.90;59.30
65038;DHT22;51605;47.040;15.294;2022-12-29T06:32:16;20.90;59.30
65038;DHT22;51605;47.040;15.294;2022-12-29T06:34:42;20.80;59.20
65038;DHT22;51605;47.040;15.294;2022-12-29T06:37:07;20.90;59.20
65038;DHT22;51605;47.040;15.294;2022-12-29T06:39:33;20.90;59.20
65038;DHT22;51605;47.040;15.294;2022-12-29T06:41:58;20.80;59.10
65038;DHT22;51605;47.040;15.294;2022-12-29T06:44:24;20.90;59.20
65038;DHT22;51605;47.040;15.294;2022-12-29T06:46:49;20.90;59.20
65038;DHT22;51605;47.040;15.294;2022-12-29T06:49:15;20.90;59.10
65038;DHT22;51605;47.040;15.294;2022-12-29T06:51:41;20.90;59.10
65038;DHT22;51605;47.040;15.294;2022-12-29T06:54:06;20.90;59.10
65038;DHT22;51605;47.040;15.294;2022-12-29T06:56:32;20.90;59.10
65038;DHT22;51605;47.040;15.294;2022-12-29T06:58:58;20.90;59.10
65038;DHT22;51605;47.040;15.294;2022-12-29T07:01:25;20.90;59.10
65038;DHT22;51605;47.040;15.294;2022-12-29T07:03:50;20.90;59.10
65038;DHT22;51605;47.040;15.294;2022-12-29T07:06:16;20.90;59.10
65038;DHT22;51605;47.040;15.294;2022-12-29T07:08:42;20.90;59.20
65038;DHT22;51605;47.040;15.294;2022-12-29T07:11:07;20.90;59.10
65038;DHT22;51605;47.040;15.294;2022-12-29T07:13:33;20.90;59.10
65038;DHT22;51605;47.040;15.294;2022-12-29T07:15:59;20.90;59.20
65038;DHT22;51605;47.040;15.294;2022-12-29T07:18:24;20.90;59.10
65038;DHT22;51605;47.040;15.294;2022-12-29T07:20:50;20.90;59.10
65038;DHT22;51605;47.040;15.294;2022-12-29T07:23:15;20.90;59.10
65038;DHT22;51605;47.040;15.294;2022-12-29T07:25:41;20.90;59.10
65038;DHT22;51605;47.040;15.294;2022-12-29T07:28:06;20.90;59.10
65038;DHT22;51605;47.040;15.294;2022-12-29T07:30:32;20.90;59.10
65038;DHT22;51605;47.040;15.294;2022-12-29T07:32:58;20.90;59.20
65038;DHT22;51605;47.040;15.294;2022-12-29T07:35:23;20.90;59.10
65038;DHT22;51605;47.040;15.294;2022-12-29T07:37:49;20.90;59.20
65038;DHT22;51605;47.040;15.294;2022-12-29T07:40:15;20.90;59.30
65038;DHT22;51605;47.040;15.294;2022-12-29T07:42:41;20.80;59.20
65038;DHT22;51605;47.040;15.294;2022-12-29T07:45:06;20.80;59.20
65038;DHT22;51605;47.040;15.294;2022-12-29T07:47:32;20.80;59.30
65038;DHT22;51605;47.040;15.294;2022-12-29T07:49:57;20.80;59.20
65038;DHT22;51605;47.040;15.294;2022-12-29T07:52:23;20.80;59.20
65038;DHT22;51605;47.040;15.294;2022-12-29T07:54:48;20.80;59.20
65038;DHT22;51605;47.040;15.294;2022-12-29T07:57:14;20.80;59.20
65038;DHT22;51605;47.040;15.294;2022-12-29T07:59:39;20.80;59.10
65038;DHT22;51605;47.040;15.294;2022-12-29T08:02:05;20.80;59.10
65038;DHT22;51605;47.040;15.294;2022-12-29T08:04:31;20.80;59.10
65038;DHT22;51605;47.040;15.294;2022-12-29T08:06:56;20.90;59.10
65038;DHT22;51605;47.040;15.294;2022-12-29T08:09:22;20.80;59.00
65038;DHT22;51605;47.040;15.294;2022-12-29T08:11:47;20.90;59.00
65038;DHT22;51605;47.040;15.294;2022-12-29T08:14:13;20.80;59.00
65038;DHT22;51605;47.040;15.294;2022-12-29T08:16:38;20.80;59.00
65038;DHT22;51605;47.040;15.294;2022-12-29T08:19:04;20.80;59.10
65038;DHT22;51605;47.040;15.294;2022-12-29T08:21:30;20.80;59.00
65038;DHT22;51605;47.040;15.294;2022-12-29T08:23:56;20.80;59.00
65038;DHT22;51605;47.040;15.294;2022-12-29T08:26:21;20.80;59.00
65038;DHT22;51605;47.040;15.294;2022-12-29T08:28:47;20.80;59.10
65038;DHT22;51605;47.040;15.294;2022-12-29T08:31:12;20.80;59.10
65038;DHT22;51605;47.040;15.294;2022-12-29T08:33:38;20.80;59.10
65038;DHT22;51605;47.040;15.294;2022-12-29T08:36:04;20.80;59.10
65038;DHT22;51605;47.040;15.294;2022-12-29T08:38:30;20.80;59.10
65038;DHT22;51605;47.040;15.294;2022-12-29T08:40:56;20.80;59.10
65038;DHT22;51605;47.040;15.294;2022-12-29T08:43:22;20.80;59.10
65038;DHT22;51605;47.040;15.294;2022-12-29T08:45:48;20.80;59.10
65038;DHT22;51605;47.040;15.294;2022-12-29T08:48:13;20.80;59.10
65038;DHT22;51605;47.040;15.294;2022-12-29T08:50:39;20.80;59.10
65038;DHT22;51605;47.040;15.294;2022-12-29T08:53:04;20.80;59.10
65038;DHT22;51605;47.040;15.294;2022-12-29T08:55:30;20.80;59.10
65038;DHT22;51605;47.040;15.294;2022-12-29T08:57:55;20.80;59.10
65038;DHT22;51605;47.040;15.294;2022-12-29T09:00:21;20.80;59.10
65038;DHT22;51605;47.040;15.294;2022-12-29T09:02:46;20.80;59.00
65038;DHT22;51605;47.040;15.294;2022-12-29T09:05:12;20.80;59.00
65038;DHT22;51605;47.040;15.294;2022-12-29T09:07:37;20.80;58.90
65038;DHT22;51605;47.040;15.294;2022-12-29T09:10:03;20.80;58.40
65038;DHT22;51605;47.040;15.294;2022-12-29T09:12:29;20.70;58.00
65038;DHT22;51605;47.040;15.294;2022-12-29T09:14:55;20.70;57.80
65038;DHT22;51605;47.040;15.294;2022-12-29T09:17:20;20.70;57.70
65038;DHT22;51605;47.040;15.294;2022-12-29T09:20:04;20.70;57.50
65038;DHT22;51605;47.040;15.294;2022-12-29T09:22:30;20.70;57.40
65038;DHT22;51605;47.040;15.294;2022-12-29T09:24:55;20.70;58.20
65038;DHT22;51605;47.040;15.294;2022-12-29T09:27:21;20.70;56.90
65038;DHT22;51605;47.040;15.294;2022-12-29T09:29:46;20.70;56.70
65038;DHT22;51605;47.040;15.294;2022-12-29T09:32:12;20.70;56.90
65038;DHT22;51605;47.040;15.294;2022-12-29T09:34:37;20.70;57.00
65038;DHT22;51605;47.040;15.294;2022-12-29T09:37:03;20.70;57.10
65038;DHT22;51605;47.040;15.294;2022-12-29T09:39:28;20.80;57.20
65038;DHT22;51605;47.040;15.294;2022-12-29T09:42:08;20.80;57.20
65038;DHT22;51605;47.040;15.294;2022-12-29T09:47:03;20.70;57.50
65038;DHT22;51605;47.040;15.294;2022-12-29T09:52:06;20.80;57.60
65038;DHT22;51605;47.040;15.294;2022-12-29T09:57:23;20.80;57.80
65038;DHT22;51605;47.040;15.294;2022-12-29T09:59:50;20.70;57.80
65038;DHT22;51605;47.040;15.294;2022-12-29T10:02:38;20.70;57.80
65038;DHT22;51605;47.040;15.294;2022-12-29T10:07:48;20.80;57.90
65038;DHT22;51605;47.040;15.294;2022-12-29T10:20:30;20.80;58.00
65038;DHT22;51605;47.040;15.294;2022-12-29T10:25:41;20.80;58.20
65038;DHT22;51605;47.040;15.294;2022-12-29T10:28:15;20.70;58.10
65038;DHT22;51605;47.040;15.294;2022-12-29T10:30:43;20.80;58.10
65038;DHT22;51605;47.040;15.294;2022-12-29T10:33:11;20.70;58.10
65038;DHT22;51605;47.040;15.294;2022-12-29T10:35:37;20.70;58.20
65038;DHT22;51605;47.040;15.294;2022-12-29T10:40:49;20.80;58.20
65038;DHT22;51605;47.040;15.294;2022-12-29T10:43:26;20.80;58.20
65038;DHT22;51605;47.040;15.294;2022-12-29T10:45:56;20.80;58.10
65038;DHT22;51605;47.040;15.294;2022-12-29T10:48:24;20.80;58.10
65038;DHT22;51605;47.040;15.294;2022-12-29T10:50:50;20.80;58.10
65038;DHT22;51605;47.040;15.294;2022-12-29T10:53:20;20.80;58.20
65038;DHT22;51605;47.040;15.294;2022-12-29T10:55:47;20.80;58.30
65038;DHT22;51605;47.040;15.294;2022-12-29T10:58:14;20.80;58.20
65038;DHT22;51605;47.040;15.294;2022-12-29T11:00:40;20.80;58.20
65038;DHT22;51605;47.040;15.294;2022-12-29T11:08:11;20.80;58.30
65038;DHT22;51605;47.040;15.294;2022-12-29T11:10:38;20.70;58.30
65038;DHT22;51605;47.040;15.294;2022-12-29T11:15:48;20.80;58.40
65038;DHT22;51605;47.040;15.294;2022-12-29T11:20:45;20.80;58.30
65038;DHT22;51605;47.040;15.294;2022-12-29T11:23:22;20.80;58.40
65038;DHT22;51605;47.040;15.294;2022-12-29T11:26:07;20.80;58.40
65038;DHT22;51605;47.040;15.294;2022-12-29T11:28:33;20.80;58.30
65038;DHT22;51605;47.040;15.294;2022-12-29T11:30:59;20.80;58.30
65038;DHT22;51605;47.040;15.294;2022-12-29T11:33:27;20.80;58.30
65038;DHT22;51605;47.040;15.294;2022-12-29T11:35:53;20.80;58.40
65038;DHT22;51605;47.040;15.294;2022-12-29T11:38:23;20.80;58.30
65038;DHT22;51605;47.040;15.294;2022-12-29T11:40:49;20.80;58.40
65038;DHT22;51605;47.040;15.294;2022-12-29T11:43:27;20.80;58.50
65038;DHT22;51605;47.040;15.294;2022-12-29T11:45:55;20.80;58.50
65038;DHT22;51605;47.040;15.294;2022-12-29T11:48:21;20.80;58.50
65038;DHT22;51605;47.040;15.294;2022-12-29T11:50:51;20.80;58.40
65038;DHT22;51605;47.040;15.294;2022-12-29T11:53:21;20.80;58.50
65038;DHT22;51605;47.040;15.294;2022-12-29T11:55:50;20.80;58.50
65038;DHT22;51605;47.040;15.294;2022-12-29T11:58:16;20.80;58.50
65038;DHT22;51605;47.040;15.294;2022-12-29T12:00:42;20.80;58.50
65038;DHT22;51605;47.040;15.294;2022-12-29T12:03:19;20.80;58.50
65038;DHT22;51605;47.040;15.294;2022-12-29T12:05:48;20.80;58.50
65038;DHT22;51605;47.040;15.294;2022-12-29T12:08:36;20.80;58.50
65038;DHT22;51605;47.040;15.294;2022-12-29T12:13:35;20.80;58.50
65038;DHT22;51605;47.040;15.294;2022-12-29T12:16:09;20.80;58.50
65038;DHT22;51605;47.040;15.294;2022-12-29T12:18:39;20.70;58.50
65038;DHT22;51605;47.040;15.294;2022-12-29T12:21:12;20.80;58.50
65038;DHT22;51605;47.040;15.294;2022-12-29T12:23:48;20.80;58.60
65038;DHT22;51605;47.040;15.294;2022-12-29T12:26:20;20.70;58.50
65038;DHT22;51605;47.040;15.294;2022-12-29T12:31:38;20.70;58.60
65038;DHT22;51605;47.040;15.294;2022-12-29T12:33:58;20.70;58.60
65038;DHT22;51605;47.040;15.294;2022-12-29T12:36:30;20.70;58.60
65038;DHT22;51605;47.040;15.294;2022-12-29T12:39:11;20.70;58.60
65038;DHT22;51605;47.040;15.294;2022-12-29T12:44:18;20.70;58.80
65038;DHT22;51605;47.040;15.294;2022-12-29T12:47:03;20.70;58.60
65038;DHT22;51605;47.040;15.294;2022-12-29T13:00:11;20.70;58.70
65038;DHT22;51605;47.040;15.294;2022-12-29T13:02:43;20.70;58.70
65038;DHT22;51605;47.040;15.294;2022-12-29T13:20:58;20.70;58.60
65038;DHT22;51605;47.040;15.294;2022-12-29T13:26:16;20.70;58.70
65038;DHT22;51605;47.040;15.294;2022-12-29T13:28:55;20.70;58.70
65038;DHT22;51605;47.040;15.294;2022-12-29T13:31:35;20.70;58.70
65038;DHT22;51605;47.040;15.294;2022-12-29T13:34:17;20.70;58.70
65038;DHT22;51605;47.040;15.294;2022-12-29T13:36:51;20.80;58.70
65038;DHT22;51605;47.040;15.294;2022-12-29T13:41:44;20.70;58.70
65038;DHT22;51605;47.040;15.294;2022-12-29T13:44:15;20.70;58.70
65038;DHT22;51605;47.040;15.294;2022-12-29T13:46:43;20.70;58.60
65038;DHT22;51605;47.040;15.294;2022-12-29T13:51:36;20.70;58.70
65038;DHT22;51605;47.040;15.294;2022-12-29T14:01:58;20.70;58.60
65038;DHT22;51605;47.040;15.294;2022-12-29T14:04:27;20.70;58.60
65038;DHT22;51605;47.040;15.294;2022-12-29T14:07:03;20.70;58.70
65038;DHT22;51605;47.040;15.294;2022-12-29T14:14:51;20.70;58.80
65038;DHT22;51605;47.040;15.294;2022-12-29T14:17:19;20.70;58.80
65038;DHT22;51605;47.040;15.294;2022-12-29T14:19:44;20.70;58.80
65038;DHT22;51605;47.040;15.294;2022-12-29T14:22:10;20.70;58.80
65038;DHT22;51605;47.040;15.294;2022-12-29T14:24:41;20.70;58.80
65038;DHT22;51605;47.040;15.294;2022-12-29T14:34:48;20.70;58.80
65038;DHT22;51605;47.040;15.294;2022-12-29T14:37:33;20.70;58.70
65038;DHT22;51605;47.040;15.294;2022-12-29T14:42:43;20.70;58.70
65038;DHT22;51605;47.040;15.294;2022-12-29T14:47:38;20.70;58.70
65038;DHT22;51605;47.040;15.294;2022-12-29T14:52:31;20.70;58.70
65038;DHT22;51605;47.040;15.294;2022-12-29T14:55:42;20.70;58.80
65038;DHT22;51605;47.040;15.294;2022-12-29T14:57:52;20.70;58.80
65038;DHT22;51605;47.040;15.294;2022-12-29T15:00:27;20.70;58.80
65038;DHT22;51605;47.040;15.294;2022-12-29T15:03:05;20.70;58.80
65038;DHT22;51605;47.040;15.294;2022-12-29T15:05:36;20.70;58.70
65038;DHT22;51605;47.040;15.294;2022-12-29T15:08:03;20.80;58.80
65038;DHT22;51605;47.040;15.294;2022-12-29T15:10:32;20.70;58.70
65038;DHT22;51605;47.040;15.294;2022-12-29T15:13:02;20.70;58.80
65038;DHT22;51605;47.040;15.294;2022-12-29T15:15:28;20.80;58.80
65038;DHT22;51605;47.040;15.294;2022-12-29T15:17:55;20.80;58.60
65038;DHT22;51605;47.040;15.294;2022-12-29T15:20:39;20.70;58.50
65038;DHT22;51605;47.040;15.294;2022-12-29T15:23:09;20.70;58.90
65038;DHT22;51605;47.040;15.294;2022-12-29T15:25:35;20.70;58.30
65038;DHT22;51605;47.040;15.294;2022-12-29T15:28:02;20.70;57.20
65038;DHT22;51605;47.040;15.294;2022-12-29T15:30:28;20.70;57.00
65038;DHT22;51605;47.040;15.294;2022-12-29T15:32:54;20.70;56.90
65038;DHT22;51605;47.040;15.294;2022-12-29T15:37:48;20.70;57.20
65038;DHT22;51605;47.040;15.294;2022-12-29T15:40:27;20.70;57.30
65038;DHT22;51605;47.040;15.294;2022-12-29T15:45:34;20.70;57.60
65038;DHT22;51605;47.040;15.294;2022-12-29T15:48:00;20.70;57.60
65038;DHT22;51605;47.040;15.294;2022-12-29T15:50:27;20.70;57.60
65038;DHT22;51605;47.040;15.294;2022-12-29T15:52:53;20.70;57.60
65038;DHT22;51605;47.040;15.294;2022-12-29T15:55:20;20.70;57.70
65038;DHT22;51605;47.040;15.294;2022-12-29T15:57:46;20.70;57.70
65038;DHT22;51605;47.040;15.294;2022-12-29T16:00:23;20.70;57.80
65038;DHT22;51605;47.040;15.294;2022-12-29T16:02:50;20.70;58.80
65038;DHT22;51605;47.040;15.294;2022-12-29T16:05:16;20.70;57.90
65038;DHT22;51605;47.040;15.294;2022-12-29T16:07:56;20.70;57.90
65038;DHT22;51605;47.040;15.294;2022-12-29T16:10:25;20.70;57.90
65038;DHT22;51605;47.040;15.294;2022-12-29T16:12:51;20.70;57.90
65038;DHT22;51605;47.040;15.294;2022-12-29T16:15:16;20.70;58.00
65038;DHT22;51605;47.040;15.294;2022-12-29T16:17:49;20.70;58.00
65038;DHT22;51605;47.040;15.294;2022-12-29T16:20:23;20.70;58.00
65038;DHT22;51605;47.040;15.294;2022-12-29T16:22:53;20.70;58.20
65038;DHT22;51605;47.040;15.294;2022-12-29T16:25:24;20.70;57.50
65038;DHT22;51605;47.040;15.294;2022-12-29T16:27:50;20.70;56.90
65038;DHT22;51605;47.040;15.294;2022-12-29T16:32:48;20.70;56.80
65038;DHT22;51605;47.040;15.294;2022-12-29T16:35:18;20.70;56.90
65038;DHT22;51605;47.040;15.294;2022-12-29T16:37:44;20.70;56.90
65038;DHT22;51605;47.040;15.294;2022-12-29T16:43:02;20.70;56.90
65038;DHT22;51605;47.040;15.294;2022-12-29T16:48:10;20.70;56.80
65038;DHT22;51605;47.040;15.294;2022-12-29T16:50:42;20.70;56.70
65038;DHT22;51605;47.040;15.294;2022-12-29T16:53:21;20.70;56.90
65038;DHT22;51605;47.040;15.294;2022-12-29T16:55:49;20.70;56.90
65038;DHT22;51605;47.040;15.294;2022-12-29T16:58:21;20.70;57.00
65038;DHT22;51605;47.040;15.294;2022-12-29T17:00:48;20.70;57.00
65038;DHT22;51605;47.040;15.294;2022-12-29T17:03:13;20.70;57.10
65038;DHT22;51605;47.040;15.294;2022-12-29T17:05:39;20.70;57.10
65038;DHT22;51605;47.040;15.294;2022-12-29T17:08:18;20.70;57.10
65038;DHT22;51605;47.040;15.294;2022-12-29T17:10:51;20.70;57.20
65038;DHT22;51605;47.040;15.294;2022-12-29T17:13:35;20.70;57.30
65038;DHT22;51605;47.040;15.294;2022-12-29T17:16:01;20.70;57.40
65038;DHT22;51605;47.040;15.294;2022-12-29T17:18:27;20.70;57.30
65038;DHT22;51605;47.040;15.294;2022-12-29T17:20:52;20.70;57.30
65038;DHT22;51605;47.040;15.294;2022-12-29T17:23:18;20.70;57.40
65038;DHT22;51605;47.040;15.294;2022-12-29T17:25:43;20.70;57.50
65038;DHT22;51605;47.040;15.294;2022-12-29T17:30:38;20.70;57.50
65038;DHT22;51605;47.040;15.294;2022-12-29T17:33:05;20.70;57.50
65038;DHT22;51605;47.040;15.294;2022-12-29T17:35:33;20.70;57.60
65038;DHT22;51605;47.040;15.294;2022-12-29T17:37:58;20.70;57.60
65038;DHT22;51605;47.040;15.294;2022-12-29T17:40:28;20.70;57.60
65038;DHT22;51605;47.040;15.294;2022-12-29T17:42:55;20.70;57.60
65038;DHT22;51605;47.040;15.294;2022-12-29T17:45:25;20.70;57.60
65038;DHT22;51605;47.040;15.294;2022-12-29T17:47:50;20.70;57.60
65038;DHT22;51605;47.040;15.294;2022-12-29T17:50:17;20.70;57.60
65038;DHT22;51605;47.040;15.294;2022-12-29T17:52:45;20.70;57.60
65038;DHT22;51605;47.040;15.294;2022-12-29T17:55:14;20.70;57.60
65038;DHT22;51605;47.040;15.294;2022-12-29T17:57:40;20.70;57.60
65038;DHT22;51605;47.040;15.294;2022-12-29T18:00:05;20.70;57.60